Time;durP1;ratioP1;P1;durP2;ratioP2;P2;SDS_P1;SDS_P2;PMS_P1;PMS_P2;Temp;Humidity;BMP_temperature;BMP_pressure;BME280_temperature;BME280_humidity;BME280_pressure;Samples;Min_cycle;Max_cycle;Signal;HPM_P1;HPM_P2
2022/07/10 00:00:35;;;;;;;4.03;1.58;;;15.30;99.90;;;;;;5133897;27;20175;-54
2022/07/10 00:03:01;;;;;;;3.25;1.50;;;15.50;99.90;;;;;;5134061;27;20180;-54
2022/07/10 00:05:28;;;;;;;6.80;2.15;;;15.40;99.90;;;;;;5133158;27;20156;-54
2022/07/10 00:07:53;;;;;;;4.78;1.92;;;15.30;99.90;;;;;;5133568;27;20240;-54
2022/07/10 00:10:20;;;;;;;5.13;2.00;;;15.30;99.90;;;;;;5133350;27;20624;-55
2022/07/10 00:12:48;;;;;;;6.07;1.55;;;15.30;99.90;;;;;;5133341;27;20167;-55
2022/07/10 00:15:15;;;;;;;5.05;1.80;;;15.30;99.90;;;;;;5133328;27;20179;-54
2022/07/10 00:17:41;;;;;;;3.28;1.45;;;15.30;99.90;;;;;;5133238;27;20259;-55
2022/07/10 00:20:07;;;;;;;6.57;2.22;;;15.20;99.90;;;;;;5133266;27;20163;-54
2022/07/10 00:22:37;;;;;;;6.68;1.75;;;15.20;99.90;;;;;;5133578;27;20161;-55
2022/07/10 00:25:07;;;;;;;8.10;2.00;;;15.20;99.90;;;;;;5133770;27;20254;-55
2022/07/10 00:27:32;;;;;;;9.80;2.42;;;15.10;99.90;;;;;;5133369;27;20215;-54
2022/07/10 00:29:58;;;;;;;6.45;2.55;;;15.20;99.90;;;;;;5133350;27;20179;-55
2022/07/10 00:32:25;;;;;;;6.50;2.00;;;15.10;99.90;;;;;;5133101;27;20172;-55
2022/07/10 00:34:51;;;;;;;10.75;2.22;;;15.20;99.90;;;;;;5132964;27;20218;-54
2022/07/10 00:37:17;;;;;;;6.93;2.33;;;15.10;99.90;;;;;;5133422;27;20561;-55
2022/07/10 00:39:42;;;;;;;6.57;2.25;;;15.10;99.90;;;;;;5133100;27;20275;-55
2022/07/10 00:42:09;;;;;;;10.43;2.35;;;15.10;99.90;;;;;;5132967;28;20244;-54
2022/07/10 00:44:35;;;;;;;9.07;1.98;;;15.20;99.90;;;;;;5133402;27;20156;-55
2022/07/10 00:47:01;;;;;;;5.78;2.05;;;15.20;99.90;;;;;;5133181;27;20266;-55
2022/07/10 00:49:27;;;;;;;5.03;2.08;;;15.10;99.90;;;;;;5132927;27;20246;-55
2022/07/10 00:51:53;;;;;;;2.70;1.42;;;15.10;99.90;;;;;;5133157;28;20248;-55
2022/07/10 00:54:19;;;;;;;7.53;1.80;;;15.10;99.90;;;;;;5132706;27;20200;-54
2022/07/10 00:56:45;;;;;;;3.35;1.40;;;15.10;99.90;;;;;;5132826;27;20176;-55
2022/07/10 00:59:11;;;;;;;7.55;1.65;;;15.10;99.90;;;;;;5132792;28;20171;-54
2022/07/10 01:01:36;;;;;;;5.50;1.50;;;15.20;99.90;;;;;;5133852;27;20609;-54
2022/07/10 01:04:02;;;;;;;7.78;1.95;;;15.10;99.90;;;;;;5137336;27;20183;-54
2022/07/10 01:06:28;;;;;;;5.40;1.60;;;15.10;99.90;;;;;;5136967;27;20212;-54
2022/07/10 01:08:53;;;;;;;5.18;1.67;;;15.20;99.90;;;;;;5136975;27;20163;-54
2022/07/10 01:11:19;;;;;;;5.10;1.85;;;15.30;99.90;;;;;;5136921;27;20425;-54
2022/07/10 01:13:45;;;;;;;5.63;2.08;;;15.30;99.90;;;;;;5136668;27;20202;-55
2022/07/10 01:16:12;;;;;;;8.25;1.45;;;15.30;99.90;;;;;;5136778;27;20160;-55
2022/07/10 01:18:38;;;;;;;5.57;1.70;;;15.30;99.90;;;;;;5136751;27;20255;-54
2022/07/10 01:21:03;;;;;;;7.78;2.00;;;15.30;99.90;;;;;;5137073;27;20248;-55
2022/07/10 01:23:29;;;;;;;5.35;1.83;;;15.30;99.90;;;;;;5136881;27;20164;-54
2022/07/10 01:25:55;;;;;;;6.53;2.03;;;15.30;99.90;;;;;;5136379;27;20628;-55
2022/07/10 01:28:21;;;;;;;5.30;2.38;;;15.30;99.90;;;;;;5136825;27;20268;-54
2022/07/10 01:30:48;;;;;;;6.47;1.67;;;15.30;99.90;;;;;;5136578;27;20162;-54
2022/07/10 01:33:13;;;;;;;5.50;1.80;;;15.40;99.90;;;;;;5136355;27;20270;-54
2022/07/10 01:35:40;;;;;;;5.85;1.85;;;15.40;99.90;;;;;;5136464;27;20207;-55
2022/07/10 01:38:06;;;;;;;5.95;1.73;;;15.40;99.90;;;;;;5136802;27;20247;-55
2022/07/10 01:40:32;;;;;;;4.97;1.63;;;15.40;99.90;;;;;;5136903;27;20172;-54
2022/07/10 01:42:58;;;;;;;6.03;1.60;;;15.40;99.90;;;;;;5136311;27;20168;-55
2022/07/10 01:45:25;;;;;;;5.38;1.70;;;15.40;99.90;;;;;;5136200;27;20175;-54
2022/07/10 01:47:50;;;;;;;9.75;2.00;;;15.30;99.90;;;;;;5136208;27;20493;-55
2022/07/10 01:50:16;;;;;;;4.22;1.63;;;15.40;99.90;;;;;;5136155;27;20247;-55
2022/07/10 01:52:42;;;;;;;4.93;1.75;;;15.40;99.90;;;;;;5136229;27;20214;-55
2022/07/10 01:55:08;;;;;;;6.47;2.17;;;15.50;99.90;;;;;;5135968;27;20506;-55
2022/07/10 01:57:34;;;;;;;6.07;1.67;;;15.40;99.90;;;;;;5136372;27;20171;-55
2022/07/10 02:00:00;;;;;;;8.43;1.98;;;15.50;99.90;;;;;;5135914;27;20323;-55
2022/07/10 02:02:25;;;;;;;6.32;1.65;;;15.50;99.90;;;;;;5136166;27;20203;-55
2022/07/10 02:04:51;;;;;;;7.68;1.70;;;15.40;99.90;;;;;;5136138;27;20164;-55
2022/07/10 02:07:18;;;;;;;6.72;1.83;;;15.50;99.90;;;;;;5135826;27;20168;-55
2022/07/10 02:09:45;;;;;;;8.98;1.50;;;15.50;99.90;;;;;;5136124;27;20168;-55
2022/07/10 02:12:13;;;;;;;4.68;1.50;;;15.50;99.90;;;;;;5135758;27;20195;-55
2022/07/10 02:14:39;;;;;;;5.05;1.70;;;15.60;99.90;;;;;;5135533;27;20721;-55
2022/07/10 02:17:06;;;;;;;8.07;2.25;;;15.50;99.90;;;;;;5136131;27;20168;-55
2022/07/10 02:19:32;;;;;;;7.35;1.90;;;15.50;99.90;;;;;;5135892;27;20175;-55
2022/07/10 02:21:58;;;;;;;6.25;1.52;;;15.60;99.90;;;;;;5135501;27;20281;-54
2022/07/10 02:24:24;;;;;;;6.95;1.40;;;15.50;99.90;;;;;;5135593;27;20255;-54
2022/07/10 02:26:49;;;;;;;5.93;2.05;;;15.50;99.90;;;;;;5135217;27;20222;-55
2022/07/10 02:29:15;;;;;;;5.10;1.75;;;15.50;99.90;;;;;;5135296;27;20167;-55
2022/07/10 02:31:41;;;;;;;6.93;1.92;;;15.40;99.90;;;;;;5135439;27;20191;-54
2022/07/10 02:34:08;;;;;;;6.57;1.75;;;15.50;99.90;;;;;;5135473;27;20208;-54
2022/07/10 02:36:34;;;;;;;8.35;1.75;;;15.40;99.90;;;;;;5135790;27;20175;-54
2022/07/10 02:39:00;;;;;;;4.97;1.73;;;15.30;99.90;;;;;;5135146;27;20163;-54
2022/07/10 02:41:26;;;;;;;7.18;1.83;;;15.30;99.90;;;;;;5135379;27;20354;-54
2022/07/10 02:43:51;;;;;;;4.18;1.88;;;15.20;99.90;;;;;;5135064;27;20164;-54
2022/07/10 02:46:17;;;;;;;5.18;1.70;;;15.20;99.90;;;;;;5134985;27;20171;-54
2022/07/10 02:48:42;;;;;;;3.13;1.50;;;15.20;99.90;;;;;;5134995;27;20656;-54
2022/07/10 02:51:08;;;;;;;3.50;1.50;;;15.10;99.90;;;;;;5134946;27;20646;-54
2022/07/10 02:53:33;;;;;;;6.78;2.15;;;15.10;99.90;;;;;;5133840;27;20244;-54
2022/07/10 02:55:59;;;;;;;4.75;1.65;;;15.00;99.90;;;;;;5134913;27;20186;-54
2022/07/10 02:58:25;;;;;;;7.22;1.65;;;15.00;99.90;;;;;;5134838;27;20494;-54
2022/07/10 03:00:51;;;;;;;5.28;1.50;;;15.00;99.90;;;;;;5134750;27;20179;-54
2022/07/10 03:03:17;;;;;;;4.43;1.85;;;14.90;99.90;;;;;;5134730;27;20168;-54
2022/07/10 03:05:44;;;;;;;4.07;1.65;;;14.90;99.90;;;;;;5135031;27;20172;-54
2022/07/10 03:08:10;;;;;;;5.63;1.80;;;15.00;99.90;;;;;;5134939;27;20164;-54
2022/07/10 03:10:36;;;;;;;7.00;1.70;;;14.90;99.90;;;;;;5134935;27;20176;-54
2022/07/10 03:13:02;;;;;;;5.55;1.63;;;15.00;99.90;;;;;;5134781;27;20603;-54
2022/07/10 03:15:27;;;;;;;3.65;1.83;;;15.10;99.90;;;;;;5134482;27;20298;-53
2022/07/10 03:17:53;;;;;;;5.05;1.77;;;15.10;99.90;;;;;;5134407;27;20618;-54
2022/07/10 03:20:19;;;;;;;7.22;1.80;;;15.00;99.90;;;;;;5134326;27;20164;-54
2022/07/10 03:22:44;;;;;;;3.25;1.52;;;15.00;99.90;;;;;;5134278;27;20187;-54
2022/07/10 03:25:10;;;;;;;8.18;1.77;;;15.10;99.90;;;;;;5133776;27;20175;-54
2022/07/10 03:27:36;;;;;;;4.32;1.63;;;15.00;99.90;;;;;;5134068;27;20882;-54
2022/07/10 03:30:02;;;;;;;6.30;1.98;;;15.00;99.90;;;;;;5134429;27;20247;-54
2022/07/10 03:32:28;;;;;;;6.78;2.05;;;14.90;99.90;;;;;;5134076;27;20160;-54
2022/07/10 03:34:54;;;;;;;8.95;1.70;;;15.00;99.90;;;;;;5133970;27;20204;-54
2022/07/10 03:37:19;;;;;;;3.63;1.60;;;14.90;99.90;;;;;;5134269;27;20209;-54
2022/07/10 03:39:45;;;;;;;3.83;2.00;;;15.00;99.90;;;;;;5133985;27;20160;-54
2022/07/10 03:42:10;;;;;;;10.75;1.95;;;15.00;99.90;;;;;;5133885;27;20179;-54
2022/07/10 03:44:36;;;;;;;5.85;1.80;;;15.00;99.90;;;;;;5133928;27;20194;-54
2022/07/10 03:47:03;;;;;;;5.70;2.10;;;15.00;99.90;;;;;;5134126;27;20163;-54
2022/07/10 03:49:28;;;;;;;4.95;1.77;;;15.00;99.90;;;;;;5133826;27;20164;-54
2022/07/10 03:51:54;;;;;;;5.35;2.13;;;15.10;99.90;;;;;;5133642;27;20250;-54
2022/07/10 03:54:20;;;;;;;4.35;2.28;;;15.00;99.90;;;;;;5133611;27;20208;-54
2022/07/10 03:59:29;;;;;;;6.72;1.98;;;15.10;99.90;;;;;;5133629;27;20179;-54
2022/07/10 04:01:55;;;;;;;10.25;2.75;;;15.00;99.90;;;;;;5133713;27;20156;-54
2022/07/10 04:04:20;;;;;;;5.88;2.22;;;14.90;99.90;;;;;;5133529;27;20531;-54
2022/07/10 04:06:46;;;;;;;8.43;2.15;;;14.90;99.90;;;;;;5133480;27;20578;-54
2022/07/10 04:09:12;;;;;;;5.95;2.13;;;14.90;99.90;;;;;;5133461;27;20216;-54
2022/07/10 04:11:40;;;;;;;7.30;1.88;;;15.00;99.90;;;;;;5133372;27;20182;-54
2022/07/10 04:14:06;;;;;;;14.05;2.30;;;14.80;99.90;;;;;;5133336;27;20203;-54
2022/07/10 04:16:31;;;;;;;9.27;2.80;;;14.90;99.90;;;;;;5133649;27;20164;-54
2022/07/10 04:18:57;;;;;;;9.80;2.28;;;15.00;99.90;;;;;;5133290;27;20164;-54
2022/07/10 04:21:23;;;;;;;5.60;1.98;;;15.00;99.90;;;;;;5133232;27;20679;-54
2022/07/10 04:23:48;;;;;;;5.85;2.10;;;15.00;99.90;;;;;;5133420;27;20168;-54
2022/07/10 04:26:14;;;;;;;6.00;2.38;;;15.10;99.90;;;;;;5133085;27;20258;-54
2022/07/10 04:28:40;;;;;;;8.43;2.60;;;15.20;99.90;;;;;;5133152;27;20179;-54
2022/07/10 04:31:06;;;;;;;7.32;2.40;;;15.20;99.90;;;;;;5133291;27;20163;-54
2022/07/10 04:33:31;;;;;;;7.47;2.10;;;15.20;99.90;;;;;;5133585;27;20231;-54
2022/07/10 04:35:57;;;;;;;8.63;2.55;;;15.30;99.90;;;;;;5133084;27;20202;-54
2022/07/10 04:38:22;;;;;;;7.97;2.53;;;15.40;99.90;;;;;;5133113;27;20238;-54
2022/07/10 04:40:48;;;;;;;6.65;2.10;;;15.70;99.90;;;;;;5132986;27;20167;-54
2022/07/10 04:43:13;;;;;;;5.68;2.15;;;15.90;99.90;;;;;;5133073;28;20163;-54
2022/07/10 04:45:39;;;;;;;7.55;2.35;;;16.00;99.90;;;;;;5133197;27;20171;-54
2022/07/10 04:48:05;;;;;;;5.30;2.70;;;16.30;99.90;;;;;;5133343;28;20164;-54
2022/07/10 04:50:31;;;;;;;9.25;3.13;;;16.30;99.90;;;;;;5133231;27;20166;-54
2022/07/10 04:52:57;;;;;;;5.40;2.40;;;16.20;99.90;;;;;;5132902;28;20160;-54
2022/07/10 04:55:23;;;;;;;5.20;2.20;;;16.20;99.90;;;;;;5132873;27;20172;-54
2022/07/10 04:57:48;;;;;;;5.38;2.03;;;16.30;99.90;;;;;;5132929;27;20501;-54
2022/07/10 05:00:15;;;;;;;5.95;1.90;;;16.30;99.90;;;;;;5132855;28;20247;-54
2022/07/10 05:02:40;;;;;;;7.93;2.30;;;16.30;99.90;;;;;;5133060;27;20164;-54
2022/07/10 05:05:06;;;;;;;5.65;2.38;;;16.30;99.90;;;;;;5132719;28;20166;-54
2022/07/10 05:07:32;;;;;;;3.50;2.30;;;16.40;99.90;;;;;;5133246;27;20160;-54
2022/07/10 05:09:57;;;;;;;4.93;1.95;;;16.50;99.90;;;;;;5132795;28;20505;-54
2022/07/10 05:12:23;;;;;;;7.05;2.30;;;16.60;99.90;;;;;;5132759;28;20164;-54
2022/07/10 05:14:49;;;;;;;9.13;3.00;;;16.50;99.90;;;;;;5132587;28;20248;-54
2022/07/10 05:17:14;;;;;;;5.97;1.92;;;16.70;99.90;;;;;;5131433;28;20179;-54
2022/07/10 05:19:40;;;;;;;7.97;2.30;;;16.70;99.90;;;;;;5132634;27;20163;-54
2022/07/10 05:22:05;;;;;;;6.55;2.55;;;16.70;99.90;;;;;;5132668;28;20191;-54
2022/07/10 05:24:31;;;;;;;10.10;2.85;;;16.80;99.90;;;;;;5132934;28;20172;-55
2022/07/10 05:26:57;;;;;;;7.20;2.33;;;16.90;99.90;;;;;;5132336;28;20208;-54
2022/07/10 05:29:22;;;;;;;5.53;2.22;;;17.10;99.90;;;;;;5132484;28;20203;-54
2022/07/10 05:31:48;;;;;;;5.95;1.98;;;17.20;99.90;;;;;;5132534;28;20194;-54
2022/07/10 05:34:13;;;;;;;6.07;2.25;;;17.00;99.90;;;;;;5132394;28;20211;-54
2022/07/10 05:36:39;;;;;;;10.05;2.33;;;17.10;99.90;;;;;;5131180;28;20175;-54
2022/07/10 05:39:05;;;;;;;8.80;2.05;;;17.20;99.90;;;;;;5132751;28;20217;-54
2022/07/10 05:41:32;;;;;;;7.00;2.22;;;17.10;99.90;;;;;;5132744;28;20221;-54
2022/07/10 05:43:59;;;;;;;7.22;2.45;;;17.30;99.90;;;;;;5132448;27;20556;-54
2022/07/10 05:46:25;;;;;;;6.57;2.15;;;17.50;99.90;;;;;;5132619;27;20164;-54
2022/07/10 05:48:51;;;;;;;4.05;2.30;;;17.70;99.90;;;;;;5135323;27;20182;-54
2022/07/10 05:51:16;;;;;;;4.85;2.08;;;18.00;99.90;;;;;;5136237;27;20677;-54
2022/07/10 05:53:42;;;;;;;3.97;2.08;;;17.80;99.90;;;;;;5136032;27;20210;-54
2022/07/10 05:56:08;;;;;;;6.03;1.80;;;17.70;99.90;;;;;;5136002;27;20191;-54
2022/07/10 05:58:33;;;;;;;7.60;2.58;;;17.70;99.90;;;;;;5136504;27;20164;-53
2022/07/10 06:00:59;;;;;;;5.28;2.65;;;17.80;99.90;;;;;;5134606;27;20281;-54
2022/07/10 06:03:24;;;;;;;3.47;1.50;;;18.00;99.90;;;;;;5125275;27;20171;-54
2022/07/10 06:05:50;;;;;;;6.20;2.08;;;18.00;99.90;;;;;;5123957;27;20164;-54
2022/07/10 06:08:16;;;;;;;3.78;1.90;;;18.10;99.90;;;;;;5135452;27;20168;-54
2022/07/10 06:10:43;;;;;;;5.00;2.53;;;18.30;99.90;;;;;;5135405;27;20182;-54
2022/07/10 06:13:10;;;;;;;5.25;2.03;;;18.20;99.90;;;;;;5135575;27;20618;-54
2022/07/10 06:15:36;;;;;;;5.65;2.20;;;18.00;99.90;;;;;;5135684;27;20247;-54
2022/07/10 06:18:02;;;;;;;6.72;2.08;;;18.10;99.90;;;;;;5135844;27;20195;-54
2022/07/10 06:20:28;;;;;;;4.88;2.10;;;18.00;99.90;;;;;;5135611;27;20171;-54
2022/07/10 06:22:53;;;;;;;5.75;1.80;;;18.10;99.90;;;;;;5135432;27;20205;-54
2022/07/10 06:25:19;;;;;;;4.07;1.95;;;18.30;99.90;;;;;;5135532;27;20202;-54
2022/07/10 06:27:44;;;;;;;3.78;2.08;;;18.40;99.90;;;;;;5135232;27;20242;-54
2022/07/10 06:30:11;;;;;;;8.82;2.30;;;18.60;99.90;;;;;;5135633;27;20231;-55
2022/07/10 06:32:37;;;;;;;4.85;1.73;;;18.70;99.90;;;;;;5135314;27;20167;-54
2022/07/10 06:35:03;;;;;;;5.40;1.73;;;18.60;99.90;;;;;;5135878;27;20204;-54
2022/07/10 06:37:30;;;;;;;8.88;2.55;;;18.50;99.90;;;;;;5135640;27;20195;-54
2022/07/10 06:39:56;;;;;;;4.07;1.75;;;18.30;99.90;;;;;;5135232;27;20165;-54
2022/07/10 06:42:22;;;;;;;6.78;2.03;;;18.10;99.90;;;;;;5135102;27;20152;-54
2022/07/10 06:44:48;;;;;;;8.63;2.05;;;17.90;99.90;;;;;;5134673;27;20629;-54
2022/07/10 06:50:05;;;;;;;7.13;2.10;;;17.90;99.90;;;;;;5135650;27;20294;-54
2022/07/10 06:52:34;;;;;;;4.22;2.25;;;17.90;99.90;;;;;;5135241;27;20164;-54
2022/07/10 06:55:01;;;;;;;5.82;2.08;;;17.80;99.90;;;;;;5134798;27;20196;-54
2022/07/10 06:57:27;;;;;;;7.30;2.25;;;17.60;99.90;;;;;;5134893;27;20216;-54
2022/07/10 06:59:53;;;;;;;4.80;2.03;;;17.70;99.90;;;;;;5133668;27;20643;-54
2022/07/10 07:02:19;;;;;;;5.80;1.92;;;17.60;99.90;;;;;;5133497;27;20160;-55
2022/07/10 07:04:45;;;;;;;5.45;1.92;;;17.60;99.90;;;;;;5134607;27;20172;-54
2022/07/10 07:07:12;;;;;;;6.13;2.72;;;17.60;99.90;;;;;;5134759;27;20179;-54
2022/07/10 07:09:38;;;;;;;6.97;2.25;;;17.60;99.90;;;;;;5134364;27;20188;-54
2022/07/10 07:12:04;;;;;;;5.10;2.03;;;17.50;99.90;;;;;;5134755;27;20629;-54
2022/07/10 07:14:30;;;;;;;7.40;2.40;;;17.50;99.90;;;;;;5134331;27;20227;-54
2022/07/10 07:17:05;;;;;;;4.70;2.10;;;17.50;99.90;;;;;;5134276;27;20203;-54
2022/07/10 07:19:31;;;;;;;7.07;1.92;;;17.60;99.90;;;;;;5134530;27;20658;-54
2022/07/10 07:24:44;;;;;;;5.75;1.73;;;17.50;99.90;;;;;;5134324;27;20260;-54
2022/07/10 07:27:11;;;;;;;6.63;2.28;;;17.70;99.90;;;;;;5133999;27;20248;-54
2022/07/10 07:29:37;;;;;;;8.60;2.50;;;17.60;99.90;;;;;;5134171;27;20656;-54
2022/07/10 07:32:03;;;;;;;5.28;1.88;;;17.70;99.90;;;;;;5134277;27;20164;-54
2022/07/10 07:34:30;;;;;;;5.03;1.98;;;17.80;99.90;;;;;;5133315;27;20680;-54
2022/07/10 07:36:56;;;;;;;7.28;2.13;;;17.80;99.90;;;;;;5134077;27;20229;-54
2022/07/10 07:39:22;;;;;;;4.20;2.03;;;17.90;99.90;;;;;;5133507;27;20168;-54
2022/07/10 07:41:48;;;;;;;6.63;2.00;;;17.90;99.90;;;;;;5133280;27;20171;-54
2022/07/10 07:44:15;;;;;;;11.07;2.22;;;17.70;99.90;;;;;;5133557;27;20693;-54
2022/07/10 07:46:41;;;;;;;8.18;1.98;;;17.80;99.90;;;;;;5133878;27;20251;-54
2022/07/10 07:49:07;;;;;;;6.28;2.03;;;17.80;99.90;;;;;;5133802;27;20207;-54
2022/07/10 07:51:33;;;;;;;3.88;1.80;;;18.10;99.90;;;;;;5134074;27;20164;-54
2022/07/10 07:53:58;;;;;;;14.57;2.15;;;18.10;99.90;;;;;;5133877;27;20228;-54
2022/07/10 07:56:24;;;;;;;6.95;1.98;;;18.20;99.90;;;;;;5133479;27;20160;-54
2022/07/10 07:58:50;;;;;;;3.17;2.08;;;18.30;99.90;;;;;;5133328;27;20164;-54
2022/07/10 08:01:15;;;;;;;6.43;1.80;;;18.30;99.90;;;;;;5133649;27;20636;-57
2022/07/10 08:03:41;;;;;;;5.97;1.63;;;18.30;99.90;;;;;;5133124;27;20168;-56
2022/07/10 08:06:08;;;;;;;4.57;1.70;;;18.30;99.90;;;;;;5133410;27;20495;-58
2022/07/10 08:08:33;;;;;;;4.80;1.50;;;18.30;99.90;;;;;;5133851;27;20164;-56
2022/07/10 08:10:59;;;;;;;5.43;2.78;;;18.20;99.90;;;;;;5133134;27;20164;-56
2022/07/10 08:13:24;;;;;;;4.43;1.90;;;18.10;99.90;;;;;;5133287;27;20192;-57
2022/07/10 08:15:50;;;;;;;7.32;2.22;;;17.90;99.90;;;;;;5133183;27;20243;-55
2022/07/10 08:18:16;;;;;;;8.00;2.10;;;17.90;99.90;;;;;;5133312;27;20207;-57
2022/07/10 08:20:41;;;;;;;8.13;2.35;;;18.00;99.90;;;;;;5133521;27;20172;-56
2022/07/10 08:23:07;;;;;;;7.53;2.00;;;18.10;99.90;;;;;;5133196;27;20216;-56
2022/07/10 08:25:33;;;;;;;5.95;2.35;;;18.40;99.90;;;;;;5133613;27;20168;-57
2022/07/10 08:28:11;;;;;;;6.07;2.20;;;18.40;99.90;;;;;;5133067;27;20259;-57
2022/07/10 08:30:37;;;;;;;5.43;2.33;;;18.70;99.90;;;;;;5133240;27;20204;-57
2022/07/10 08:33:03;;;;;;;4.70;1.88;;;19.00;99.90;;;;;;5133367;27;20163;-57
2022/07/10 08:35:30;;;;;;;5.53;2.22;;;19.20;99.90;;;;;;5133015;27;20168;-57
2022/07/10 08:37:55;;;;;;;10.88;3.17;;;19.30;99.90;;;;;;5132786;27;20437;-57
2022/07/10 08:40:22;;;;;;;5.75;1.70;;;19.30;99.90;;;;;;5132728;27;20255;-57
2022/07/10 08:42:48;;;;;;;11.20;2.17;;;19.30;99.90;;;;;;5132944;27;20239;-57
2022/07/10 08:45:14;;;;;;;6.70;2.42;;;19.50;99.90;;;;;;5133253;27;20708;-57
2022/07/10 08:47:46;;;;;;;7.38;2.00;;;19.70;99.90;;;;;;5133023;27;20208;-57
2022/07/10 08:50:23;;;;;;;5.18;1.83;;;19.90;99.90;;;;;;5132969;27;20241;-57
2022/07/10 08:52:57;;;;;;;5.93;2.00;;;19.80;99.90;;;;;;5133166;27;20175;-57
2022/07/10 08:55:26;;;;;;;6.78;2.05;;;19.70;99.90;;;;;;5132854;27;20186;-57
2022/07/10 08:57:55;;;;;;;6.03;2.03;;;19.70;99.90;;;;;;5132980;27;20163;-58
2022/07/10 09:00:22;;;;;;;5.05;2.35;;;19.30;99.90;;;;;;5132728;27;20299;-57
2022/07/10 09:02:47;;;;;;;9.65;2.17;;;19.30;99.90;;;;;;5131656;28;20191;-57
2022/07/10 09:05:14;;;;;;;8.30;2.22;;;19.30;99.90;;;;;;5132770;28;20175;-57
2022/07/10 09:07:41;;;;;;;7.57;2.22;;;19.60;99.90;;;;;;5132702;27;20178;-57
2022/07/10 09:10:09;;;;;;;6.60;2.03;;;19.90;99.90;;;;;;5132687;27;20169;-58
2022/07/10 09:12:52;;;;;;;3.53;1.77;;;19.80;99.90;;;;;;5132416;27;20164;-57
2022/07/10 09:15:20;;;;;;;8.75;1.70;;;19.80;99.90;;;;;;5132429;27;20203;-57
2022/07/10 09:17:57;;;;;;;9.13;2.20;;;19.90;99.90;;;;;;5132161;27;20221;-57
2022/07/10 09:20:25;;;;;;;4.63;1.70;;;19.80;99.90;;;;;;5132476;27;20168;-57
2022/07/10 09:22:52;;;;;;;5.00;2.35;;;20.20;99.90;;;;;;5133888;27;20168;-57
2022/07/10 09:25:18;;;;;;;5.85;2.15;;;20.30;99.90;;;;;;5136714;27;20172;-58
2022/07/10 09:27:54;;;;;;;7.57;2.15;;;20.50;99.90;;;;;;5135992;27;20203;-57
2022/07/10 09:30:39;;;;;;;6.53;2.28;;;20.60;99.90;;;;;;5136471;27;20164;-57
2022/07/10 09:33:19;;;;;;;7.47;2.15;;;20.50;99.90;;;;;;5137012;27;20255;-57
2022/07/10 09:36:06;;;;;;;7.38;2.00;;;20.00;99.90;;;;;;5136336;27;20206;-57
2022/07/10 09:38:49;;;;;;;7.28;1.90;;;20.00;99.90;;;;;;5136791;27;20164;-57
2022/07/10 09:41:22;;;;;;;14.95;2.78;;;20.20;99.90;;;;;;5136107;27;20172;-57
2022/07/10 09:43:50;;;;;;;8.65;2.22;;;20.10;99.90;;;;;;5136069;27;20251;-58
2022/07/10 09:46:18;;;;;;;4.20;1.88;;;19.90;99.90;;;;;;5136291;27;20176;-57
2022/07/10 09:48:44;;;;;;;6.03;2.00;;;19.80;99.90;;;;;;5135722;27;20559;-57
2022/07/10 09:51:11;;;;;;;8.02;2.65;;;19.70;99.90;;;;;;5135652;27;20168;-58
2022/07/10 09:53:42;;;;;;;10.80;2.65;;;19.80;99.90;;;;;;5135782;27;20227;-58
2022/07/10 09:56:09;;;;;;;3.28;1.40;;;19.60;99.90;;;;;;5135413;27;20232;-58
2022/07/10 09:58:36;;;;;;;3.38;1.60;;;19.20;99.90;;;;;;5135910;27;20160;-57
2022/07/10 10:01:06;;;;;;;6.85;2.13;;;19.30;99.90;;;;;;5136143;27;20155;-58
2022/07/10 10:03:37;;;;;;;5.97;1.98;;;19.20;99.90;;;;;;5136300;27;20156;-56
2022/07/10 10:06:16;;;;;;;10.23;2.00;;;19.20;99.90;;;;;;5136299;27;20174;-56
2022/07/10 10:09:07;;;;;;;6.38;2.72;;;19.30;99.90;;;;;;5135378;27;20170;-56
2022/07/10 10:11:36;;;;;;;8.32;2.63;;;19.40;99.90;;;;;;5134468;27;20213;-56
2022/07/10 10:14:03;;;;;;;7.90;2.63;;;19.70;99.90;;;;;;5135937;27;20208;-57
2022/07/10 10:16:29;;;;;;;8.07;2.17;;;19.70;99.90;;;;;;5135432;27;20562;-57
2022/07/10 10:21:40;;;;;;;4.60;2.20;;;19.70;99.90;;;;;;5133754;27;20578;-55
2022/07/10 10:24:06;;;;;;;6.88;2.33;;;19.80;99.90;;;;;;5135061;27;20175;-56
2022/07/10 10:26:32;;;;;;;8.88;2.30;;;19.90;99.90;;;;;;5132579;27;20208;-59
2022/07/10 10:29:01;;;;;;;7.88;2.60;;;20.20;99.90;;;;;;5126104;27;20673;-64
2022/07/10 10:31:31;;;;;;;4.47;2.13;;;20.20;99.90;;;;;;5133908;27;20170;-63
2022/07/10 10:33:57;;;;;;;6.43;2.58;;;20.00;99.90;;;;;;5133681;27;20201;-59
2022/07/10 10:36:44;;;;;;;3.72;2.08;;;19.90;99.90;;;;;;5135231;27;20165;-56
2022/07/10 10:39:16;;;;;;;3.97;1.98;;;19.60;99.90;;;;;;5135241;27;20156;-58
2022/07/10 10:41:54;;;;;;;6.93;2.42;;;19.50;99.90;;;;;;5135148;27;20167;-60
2022/07/10 10:44:22;;;;;;;4.88;2.20;;;19.20;99.90;;;;;;5135339;27;20172;-61
2022/07/10 10:46:54;;;;;;;8.00;2.20;;;19.70;99.90;;;;;;5134801;27;20164;-61
2022/07/10 10:49:24;;;;;;;3.42;1.80;;;19.90;99.90;;;;;;5135092;27;20164;-57
2022/07/10 10:52:06;;;;;;;4.75;1.70;;;20.10;99.90;;;;;;5135037;27;20168;-59
2022/07/10 10:54:55;;;;;;;5.43;1.83;;;19.80;99.90;;;;;;5134845;27;20243;-62
2022/07/10 10:57:21;;;;;;;4.43;1.83;;;20.20;99.90;;;;;;5121473;27;20173;-63
2022/07/10 10:59:51;;;;;;;2.00;1.75;;;20.10;99.90;;;;;;5127352;27;20259;-63
2022/07/10 11:02:40;;;;;;;6.30;1.70;;;20.30;99.90;;;;;;5130739;27;20286;-61
2022/07/10 11:05:17;;;;;;;6.20;1.88;;;20.20;99.90;;;;;;5128921;27;20256;-62
2022/07/10 11:08:00;;;;;;;3.13;1.98;;;20.30;99.90;;;;;;5124326;27;20239;-61
2022/07/10 11:10:30;;;;;;;4.13;1.58;;;20.30;99.90;;;;;;5129680;27;20220;-60
2022/07/10 11:13:04;;;;;;;2.58;1.80;;;20.20;99.90;;;;;;5133904;27;20156;-63
2022/07/10 11:15:32;;;;;;;3.83;2.10;;;19.80;99.90;;;;;;5134237;27;20183;-61
2022/07/10 11:17:59;;;;;;;3.70;1.70;;;19.50;99.90;;;;;;5132945;27;20160;-63
2022/07/10 11:20:24;;;;;;;3.92;1.70;;;19.80;99.90;;;;;;5134143;27;20587;-63
2022/07/10 11:23:34;;;;;;;5.72;1.83;;;20.20;99.90;;;;;;5134034;27;20164;-63
2022/07/10 11:26:07;;;;;;;4.65;1.88;;;20.50;99.90;;;;;;5113416;27;20167;-63
2022/07/10 11:28:57;;;;;;;4.13;1.83;;;20.60;99.90;;;;;;5134212;27;20193;-63
2022/07/10 11:31:24;;;;;;;2.78;1.55;;;20.60;99.90;;;;;;5132661;27;20509;-62
2022/07/10 11:33:52;;;;;;;2.97;1.70;;;20.40;99.90;;;;;;5133905;27;20558;-62
2022/07/10 11:36:25;;;;;;;2.80;1.30;;;20.30;99.90;;;;;;5133993;27;20168;-62
2022/07/10 11:38:57;;;;;;;3.17;1.80;;;20.70;99.90;;;;;;5124993;27;20177;-61
2022/07/10 11:41:23;;;;;;;5.68;2.10;;;21.00;99.90;;;;;;5113111;28;20236;-59
2022/07/10 11:43:54;;;;;;;3.13;1.70;;;21.00;99.90;;;;;;5122287;27;20743;-59
2022/07/10 11:46:25;;;;;;;4.53;2.05;;;20.80;99.90;;;;;;5121498;27;20187;-59
2022/07/10 11:48:56;;;;;;;3.53;1.90;;;20.60;99.90;;;;;;5121308;27;20590;-59
2022/07/10 11:51:32;;;;;;;8.60;2.10;;;20.30;99.90;;;;;;5112854;28;20626;-59
2022/07/10 11:54:02;;;;;;;2.78;1.52;;;20.00;99.90;;;;;;5112567;28;20680;-59
2022/07/10 11:56:35;;;;;;;4.00;1.80;;;19.50;99.90;;;;;;5112666;28;20229;-60
2022/07/10 11:59:23;;;;;;;4.53;1.52;;;19.10;99.90;;;;;;5113053;28;20157;-58
2022/07/10 12:01:51;;;;;;;4.95;2.00;;;19.20;99.90;;;;;;5111625;28;20572;-59
2022/07/10 12:04:19;;;;;;;3.70;1.88;;;19.20;99.90;;;;;;5112549;28;20160;-58
2022/07/10 12:06:47;;;;;;;5.10;1.88;;;19.40;99.90;;;;;;5112675;28;20165;-58
2022/07/10 12:09:14;;;;;;;8.50;2.13;;;19.60;99.90;;;;;;5112564;28;20255;-58
2022/07/10 12:11:42;;;;;;;4.07;1.92;;;20.10;99.90;;;;;;5112529;28;20589;-58
2022/07/10 12:14:22;;;;;;;7.15;2.63;;;20.60;99.90;;;;;;5112451;28;20676;-58
2022/07/10 12:16:51;;;;;;;4.57;2.33;;;21.00;99.90;;;;;;5112648;28;20168;-59
2022/07/10 12:19:24;;;;;;;4.07;2.00;;;21.00;99.90;;;;;;5112032;28;20230;-58
2022/07/10 12:21:51;;;;;;;5.70;1.98;;;21.00;99.90;;;;;;5111193;28;20644;-59
2022/07/10 12:24:19;;;;;;;5.15;1.80;;;20.90;99.90;;;;;;5112546;28;20165;-60
2022/07/10 12:26:46;;;;;;;6.25;2.13;;;20.60;99.90;;;;;;5111218;28;20704;-59
2022/07/10 12:29:18;;;;;;;6.57;1.88;;;20.50;99.90;;;;;;5112589;28;20511;-60
2022/07/10 12:31:45;;;;;;;8.73;2.13;;;20.50;99.90;;;;;;5112596;28;20200;-59
2022/07/10 12:34:11;;;;;;;2.05;1.73;;;20.40;99.90;;;;;;5112613;28;20279;-60
2022/07/10 12:36:51;;;;;;;4.90;1.70;;;20.50;99.90;;;;;;5112477;28;20171;-59
2022/07/10 12:39:24;;;;;;;2.85;1.52;;;20.50;99.90;;;;;;5112472;28;20260;-59
2022/07/10 12:41:59;;;;;;;2.72;1.70;;;20.50;99.90;;;;;;5112525;28;20168;-59
2022/07/10 12:44:34;;;;;;;2.28;1.63;;;20.20;99.90;;;;;;5111127;28;20200;-59
2022/07/10 12:47:01;;;;;;;3.97;1.70;;;20.20;99.90;;;;;;5112581;28;20175;-59
2022/07/10 12:49:27;;;;;;;3.92;2.08;;;20.10;99.90;;;;;;5112384;28;20235;-58
2022/07/10 12:51:53;;;;;;;2.78;1.67;;;19.90;99.90;;;;;;5112164;28;20255;-58
2022/07/10 12:54:36;;;;;;;3.28;1.60;;;19.80;99.90;;;;;;5112197;28;20203;-60
2022/07/10 12:57:04;;;;;;;3.33;1.67;;;19.60;99.90;;;;;;5112710;28;20160;-59
2022/07/10 12:59:33;;;;;;;5.13;1.70;;;19.60;99.90;;;;;;5120450;27;20176;-58